Time;durP1;ratioP1;P1;durP2;ratioP2;P2;SDS_P1;SDS_P2;PMS_P1;PMS_P2;Temp;Humidity;BMP_temperature;BMP_pressure;BME280_temperature;BME280_humidity;BME280_pressure;Samples;Min_cycle;Max_cycle;Signal;HPM_P1;HPM_P2
2022/06/14 00:02:08;;;;;;;5.60;3.20;;;;;;;12.15;78.27;100282.33;130205;1268;109165;-68
2022/06/14 00:05:31;;;;;;;5.50;3.80;;;;;;;12.16;78.22;100276.13;130167;1268;109290;-69
2022/06/14 00:08:54;;;;;;;6.80;3.80;;;;;;;12.20;78.02;100279.33;130230;1269;109159;-68
2022/06/14 00:12:00;;;;;;;5.10;3.50;;;;;;;12.23;78.24;100277.77;130147;1268;108844;-69
2022/06/14 00:15:07;;;;;;;4.80;3.40;;;;;;;12.25;78.00;100278.23;130196;1268;108032;-69
2022/06/14 00:18:12;;;;;;;4.50;3.00;;;;;;;12.23;77.86;100281.88;130203;1268;109138;-69
2022/06/14 00:21:18;;;;;;;5.00;2.60;;;;;;;12.19;77.89;100286.08;130170;1268;108642;-68
2022/06/14 00:24:26;;;;;;;4.80;3.10;;;;;;;12.17;78.03;100285.38;130209;1267;108970;-68
2022/06/14 00:27:31;;;;;;;4.70;3.10;;;;;;;12.14;78.20;100286.36;130216;1268;108438;-69
2022/06/14 00:30:38;;;;;;;5.70;3.80;;;;;;;12.14;77.95;100283.64;130235;1268;108913;-66
2022/06/14 00:33:43;;;;;;;8.50;3.30;;;;;;;12.10;78.09;100288.36;130172;1268;108947;-67
2022/06/14 00:36:55;;;;;;;5.50;3.40;;;;;;;12.02;78.34;100291.91;130173;1268;108227;-67
2022/06/14 00:40:00;;;;;;;9.80;3.50;;;;;;;11.96;78.25;100297.33;130126;1268;108440;-67
2022/06/14 00:43:12;;;;;;;7.10;3.10;;;;;;;11.92;78.39;100295.08;130110;1268;108833;-67
2022/06/14 00:46:19;;;;;;;;;;;;;;;11.90;78.18;100293.02;130169;1268;108629;-67
2022/06/14 00:49:30;;;;;;;5.40;3.20;;;;;;;11.88;78.18;100295.27;130211;1268;108640;-68
2022/06/14 00:52:40;;;;;;;5.70;3.50;;;;;;;11.88;78.38;100299.08;130248;1268;108863;-67
2022/06/14 00:55:50;;;;;;;6.80;3.20;;;;;;;11.87;78.48;100302.73;130232;1268;108722;-67
2022/06/14 00:59:01;;;;;;;9.80;3.90;;;;;;;11.85;78.43;100303.88;130165;1268;108790;-67
2022/06/14 01:02:13;;;;;;;8.70;3.50;;;;;;;11.82;78.35;100298.48;130161;1268;108799;-67
2022/06/14 01:05:23;;;;;;;6.10;3.50;;;;;;;11.74;77.88;100305.13;130162;1268;108820;-67
2022/06/14 01:08:29;;;;;;;5.10;2.90;;;;;;;11.64;78.30;100304.94;130124;1268;108805;-67
2022/06/14 01:11:39;;;;;;;4.50;2.80;;;;;;;11.60;78.29;100307.86;130217;1268;108737;-69
2022/06/14 01:14:53;;;;;;;7.60;3.30;;;;;;;11.55;78.34;100308.14;130198;1268;108861;-67
2022/06/14 01:18:04;;;;;;;7.00;3.40;;;;;;;11.54;78.06;100313.23;130129;1268;108947;-67
2022/06/14 01:21:09;;;;;;;4.50;3.30;;;;;;;11.49;78.08;100313.95;130135;1268;109124;-66
2022/06/14 01:24:14;;;;;;;7.60;3.50;;;;;;;11.44;78.22;100311.14;130124;1268;108615;-67
2022/06/14 01:27:24;;;;;;;7.40;3.80;;;;;;;11.40;78.41;100317.02;130150;1268;108727;-68
2022/06/14 01:30:32;;;;;;;5.20;2.90;;;;;;;11.34;78.22;100316.55;129923;1268;108858;-69
2022/06/14 01:33:41;;;;;;;4.70;2.90;;;;;;;11.25;78.45;100319.83;129987;1268;108675;-68
2022/06/14 01:36:47;;;;;;;5.00;2.90;;;;;;;11.18;78.63;100319.06;130182;1268;108665;-69
2022/06/14 01:39:54;;;;;;;4.70;2.90;;;;;;;11.17;78.40;100316.89;130158;1267;107830;-69
2022/06/14 01:43:15;;;;;;;3.90;2.90;;;;;;;11.20;78.71;100321.66;130244;1268;107721;-69
2022/06/14 01:46:24;;;;;;;3.90;2.80;;;;;;;11.28;78.48;100325.70;130182;1268;108946;-69
2022/06/14 01:53:16;;;;;;;3.80;2.30;;;;;;;11.26;78.24;100324.38;130116;1268;108681;-69
2022/06/14 01:56:32;;;;;;;4.00;2.50;;;;;;;11.27;78.31;100327.05;130113;1268;108654;-69
2022/06/14 01:59:47;;;;;;;4.90;2.70;;;;;;;11.31;78.36;100327.20;130177;1268;107655;-68
2022/06/14 02:06:24;;;;;;;7.00;3.00;;;;;;;11.40;78.33;100332.48;130212;1268;108936;-69
2022/06/14 02:09:37;;;;;;;5.40;2.90;;;;;;;11.44;78.59;100335.30;130224;1267;108663;-68
2022/06/14 02:12:49;;;;;;;5.90;2.70;;;;;;;11.49;78.17;100337.89;130170;1268;108973;-72
2022/06/14 02:15:58;;;;;;;4.40;2.70;;;;;;;11.52;78.08;100338.64;130309;1267;107699;-70
2022/06/14 02:19:12;;;;;;;4.90;2.60;;;;;;;11.53;78.30;100338.98;130149;1268;108115;-70
2022/06/14 02:22:23;;;;;;;6.70;2.10;;;;;;;11.56;78.31;100338.11;130109;1268;107667;-73
2022/06/14 02:25:33;;;;;;;5.20;2.70;;;;;;;11.61;78.37;100341.27;130279;1268;108729;-70
2022/06/14 02:28:43;;;;;;;4.60;2.60;;;;;;;11.66;78.52;100346.08;130117;1268;108944;-73
2022/06/14 02:31:53;;;;;;;5.90;3.00;;;;;;;11.69;78.09;100348.81;130303;1268;108964;-73
2022/06/14 02:35:06;;;;;;;6.60;3.20;;;;;;;11.70;78.19;100350.66;130207;1268;108714;-68
2022/06/14 02:38:12;;;;;;;;;;;;;;;11.67;78.24;100348.80;130292;1268;108927;-70
2022/06/14 02:41:21;;;;;;;4.20;2.30;;;;;;;11.63;77.85;100350.11;130155;1268;108920;-74
2022/06/14 02:44:33;;;;;;;4.20;2.40;;;;;;;11.59;77.83;100353.21;130302;1268;110037;-69
2022/06/14 02:47:43;;;;;;;3.40;2.00;;;;;;;11.52;78.19;100352.71;129988;1268;256003;-69
2022/06/14 02:50:54;;;;;;;7.40;2.50;;;;;;;11.52;78.06;100358.21;130232;1268;108816;-74
2022/06/14 02:54:04;;;;;;;6.50;2.80;;;;;;;11.52;77.98;100362.69;130302;1268;108713;-72
2022/06/14 02:57:33;;;;;;;3.80;2.30;;;;;;;11.51;78.15;100366.86;130275;1268;109143;-72
2022/06/14 03:01:01;;;;;;;4.40;2.30;;;;;;;11.53;77.94;100369.78;130341;1268;109245;-77
2022/06/14 03:04:32;;;;;;;4.00;2.50;;;;;;;11.54;77.68;100367.09;130189;1268;109092;-67
2022/06/14 03:08:00;;;;;;;4.40;2.50;;;;;;;11.53;77.88;100368.39;130133;1268;109130;-72
2022/06/14 03:11:34;;;;;;;5.40;2.40;;;;;;;11.53;77.85;100372.84;130111;1267;109144;-70
2022/06/14 03:15:06;;;;;;;5.10;2.20;;;;;;;11.64;78.25;100375.70;130112;1268;109138;-70
2022/06/14 03:18:36;;;;;;;9.00;3.10;;;;;;;11.92;78.08;100377.66;130337;1267;109030;-69
2022/06/14 03:22:06;;;;;;;4.00;2.40;;;;;;;12.33;77.68;100380.50;130245;1268;109289;-71
2022/06/14 03:25:24;;;;;;;5.60;2.50;;;;;;;12.73;77.68;100381.86;130141;1268;108866;-73
2022/06/14 03:28:36;;;;;;;4.30;2.50;;;;;;;13.12;77.32;100387.08;130263;1268;108759;-72
2022/06/14 03:31:48;;;;;;;5.00;2.60;;;;;;;13.47;77.07;100390.42;130342;1268;108705;-73
2022/06/14 03:34:56;;;;;;;4.20;2.20;;;;;;;13.82;76.97;100393.89;130249;1268;109355;-72
2022/06/14 03:38:08;;;;;;;5.30;2.60;;;;;;;14.14;76.62;100396.46;130302;1268;108743;-69
2022/06/14 03:41:17;;;;;;;4.80;2.20;;;;;;;14.45;76.42;100396.14;130156;1267;108658;-69
2022/06/14 03:44:25;;;;;;;6.00;2.20;;;;;;;14.76;75.93;100400.16;130234;1268;108481;-71
2022/06/14 03:47:31;;;;;;;4.90;2.70;;;;;;;15.04;76.01;100400.36;130349;1268;108838;-71
2022/06/14 03:50:47;;;;;;;3.30;2.30;;;;;;;15.29;75.82;100394.80;130286;1265;108968;-72
2022/06/14 03:54:12;;;;;;;3.60;2.30;;;;;;;15.56;75.58;100396.89;130274;1268;108804;-72
2022/06/14 03:57:37;;;;;;;5.00;2.40;;;;;;;15.82;75.39;100403.56;130382;1267;108693;-72
2022/06/14 04:00:51;;;;;;;4.90;2.60;;;;;;;16.07;74.87;100402.00;130374;1267;108810;-73
2022/06/14 04:04:17;;;;;;;3.80;2.20;;;;;;;16.31;74.86;100404.14;130352;1268;107636;-72
2022/06/14 04:07:34;;;;;;;5.90;2.60;;;;;;;16.54;74.15;100405.79;130320;1268;108893;-72
2022/06/14 04:10:45;;;;;;;4.90;2.30;;;;;;;16.76;74.20;100399.50;130274;1268;106893;-72
2022/06/14 04:14:00;;;;;;;5.90;2.30;;;;;;;17.00;74.11;100398.04;130350;1268;108787;-72
2022/06/14 04:17:15;;;;;;;4.00;2.30;;;;;;;17.09;73.50;100393.98;130256;1268;108866;-71
2022/06/14 04:20:26;;;;;;;3.70;2.30;;;;;;;16.95;73.26;100397.95;130242;1267;108894;-71
2022/06/14 04:23:41;;;;;;;5.40;2.50;;;;;;;16.85;73.37;100395.32;130338;1268;108790;-71
2022/06/14 04:26:51;;;;;;;5.10;2.50;;;;;;;16.79;73.37;100396.96;130224;1268;108881;-71
2022/06/14 04:30:02;;;;;;;5.00;2.30;;;;;;;16.80;72.80;100397.19;130232;1268;108798;-72
2022/06/14 04:33:16;;;;;;;5.30;2.70;;;;;;;16.79;72.83;100395.30;130251;1267;108903;-73
2022/06/14 04:36:28;;;;;;;3.90;2.50;;;;;;;16.87;72.52;100397.65;130245;1268;108772;-73
2022/06/14 04:39:39;;;;;;;4.60;2.70;;;;;;;16.88;72.59;100401.98;130237;1267;108752;-74
2022/06/14 04:42:50;;;;;;;6.30;2.70;;;;;;;16.97;72.42;100409.88;130279;1267;108903;-74
2022/06/14 04:45:59;;;;;;;4.40;2.80;;;;;;;17.02;71.92;100413.08;130333;1267;108910;-72
2022/06/14 04:49:12;;;;;;;4.20;2.40;;;;;;;17.06;72.02;100415.44;130125;1267;108846;-72
2022/06/14 04:52:23;;;;;;;3.50;2.60;;;;;;;17.12;72.08;100418.41;130069;1267;108731;-72
2022/06/14 04:55:33;;;;;;;6.10;2.60;;;;;;;17.24;71.86;100417.31;130234;1268;107711;-72
2022/06/14 04:58:42;;;;;;;4.40;2.60;;;;;;;17.23;71.14;100417.36;130326;1267;108883;-72
2022/06/14 05:01:51;;;;;;;4.60;2.50;;;;;;;17.14;71.11;100412.04;130305;1267;108726;-73
2022/06/14 05:04:59;;;;;;;4.00;2.70;;;;;;;17.17;71.37;100418.49;130320;1268;108672;-73
2022/06/14 05:08:11;;;;;;;4.20;2.30;;;;;;;17.18;70.03;100422.40;130307;1268;108945;-72
2022/06/14 05:11:21;;;;;;;3.40;2.30;;;;;;;17.05;70.47;100422.20;130298;1268;108887;-71
2022/06/14 05:14:32;;;;;;;5.00;2.70;;;;;;;16.99;70.09;100421.80;130249;1268;108715;-72
2022/06/14 05:17:44;;;;;;;2.40;1.90;;;;;;;16.93;69.99;100418.45;130243;1268;108760;-70
2022/06/14 05:20:56;;;;;;;3.90;2.40;;;;;;;16.99;69.17;100417.33;130154;1268;108638;-72
2022/06/14 05:24:02;;;;;;;4.60;2.10;;;;;;;16.80;68.84;100414.98;130236;1267;108929;-71
2022/06/14 05:27:38;;;;;;;4.60;2.30;;;;;;;16.76;69.73;100414.55;130149;1268;107889;-71
2022/06/14 05:30:54;;;;;;;2.70;1.90;;;;;;;16.74;69.41;100419.30;130219;1268;106977;-73
2022/06/14 05:34:07;;;;;;;3.80;1.90;;;;;;;16.69;68.98;100410.36;130255;1268;108710;-73
2022/06/14 05:37:21;;;;;;;3.70;1.90;;;;;;;16.61;68.30;100413.78;130257;1268;108869;-73
2022/06/14 05:40:33;;;;;;;3.80;1.80;;;;;;;16.48;69.02;100409.56;130276;1268;108861;-70
2022/06/14 05:43:45;;;;;;;2.20;1.50;;;;;;;16.56;69.30;100413.73;130248;1268;108700;-71
2022/06/14 05:46:53;;;;;;;3.50;1.40;;;;;;;16.64;68.70;100407.67;130285;1268;108702;-71
2022/06/14 05:50:03;;;;;;;2.50;1.50;;;;;;;16.65;68.55;100412.15;130291;1268;108755;-70
2022/06/14 05:53:15;;;;;;;3.40;1.50;;;;;;;16.58;67.44;100413.55;130086;1267;108909;-72
2022/06/14 05:56:31;;;;;;;2.00;1.40;;;;;;;16.58;68.99;100414.63;130286;1268;108851;-70
2022/06/14 05:59:43;;;;;;;3.80;1.60;;;;;;;16.73;68.69;100415.67;130189;1268;108653;-66
2022/06/14 06:02:51;;;;;;;;;;;;;;;16.73;68.39;100417.33;130230;1268;107653;-67
2022/06/14 06:06:03;;;;;;;3.70;2.00;;;;;;;16.77;68.80;100421.07;130174;1268;108889;-69
2022/06/14 06:09:13;;;;;;;3.40;1.60;;;;;;;16.87;68.43;100423.87;130173;1267;108681;-66
2022/06/14 06:12:26;;;;;;;2.80;1.30;;;;;;;16.84;67.83;100422.42;130389;1268;108718;-68
2022/06/14 06:15:37;;;;;;;2.60;1.70;;;;;;;16.78;67.76;100426.27;130211;1267;107280;-67
2022/06/14 06:18:49;;;;;;;4.80;1.80;;;;;;;16.58;67.49;100431.33;130118;1268;108650;-74
2022/06/14 06:22:01;;;;;;;3.60;1.40;;;;;;;16.49;68.34;100432.22;130252;1267;108799;-74
2022/06/14 06:25:11;;;;;;;3.80;1.70;;;;;;;16.50;67.66;100430.92;130282;1268;108075;-72
2022/06/14 06:28:23;;;;;;;3.50;1.70;;;;;;;16.48;68.20;100432.60;130230;1267;108752;-76
2022/06/14 06:31:32;;;;;;;5.70;1.30;;;;;;;16.49;67.37;100435.52;130299;1267;108493;-73
2022/06/14 06:34:38;;;;;;;4.50;1.60;;;;;;;16.42;66.80;100432.38;130236;1267;108834;-74
2022/06/14 06:37:48;;;;;;;2.60;1.60;;;;;;;16.52;67.12;100437.84;130283;1267;108734;-75
2022/06/14 06:44:30;;;;;;;4.10;1.80;;;;;;;16.72;66.65;100437.05;130317;1267;109646;-80
2022/06/14 06:47:39;;;;;;;5.00;1.60;;;;;;;16.78;66.02;100438.29;130295;1267;109028;-77
2022/06/14 06:50:49;;;;;;;2.90;1.40;;;;;;;16.69;65.57;100436.47;130325;1267;108714;-84
2022/06/14 06:54:04;;;;;;;3.50;1.50;;;;;;;16.81;67.87;100436.67;130697;1268;108863;-83
2022/06/14 06:57:14;;;;;;;3.50;1.50;;;;;;;17.10;66.31;100436.80;130339;1268;108848;-81
2022/06/14 07:00:21;;;;;;;3.10;1.00;;;;;;;17.32;67.61;100440.70;130396;1268;107478;-81
2022/06/14 07:03:33;;;;;;;2.60;1.10;;;;;;;17.85;67.84;100429.73;130326;1268;108644;-81
2022/06/14 07:06:43;;;;;;;3.90;1.40;;;;;;;18.39;67.72;100432.42;130286;1267;108947;-75
2022/06/14 07:09:54;;;;;;;4.10;1.30;;;;;;;18.81;67.55;100432.77;130385;1267;108947;-78
2022/06/14 07:13:06;;;;;;;2.10;1.20;;;;;;;18.88;63.41;100436.09;130845;1267;108722;-73
2022/06/14 07:16:19;;;;;;;2.50;1.40;;;;;;;18.54;61.01;100437.83;130304;1267;108714;-75
2022/06/14 07:19:32;;;;;;;2.80;1.40;;;;;;;18.15;64.57;100433.80;130284;1268;108898;-74
2022/06/14 07:22:43;;;;;;;1.90;1.00;;;;;;;18.44;66.44;100436.57;130247;1267;108752;-75
2022/06/14 07:26:05;;;;;;;2.20;1.20;;;;;;;18.81;66.23;100434.83;130339;1267;107692;-75
2022/06/14 07:29:16;;;;;;;3.50;1.40;;;;;;;18.97;62.65;100436.48;130344;1267;108777;-76
2022/06/14 07:32:26;;;;;;;3.10;1.30;;;;;;;18.79;64.27;100434.33;130295;1268;108656;-75
2022/06/14 07:35:43;;;;;;;2.50;1.20;;;;;;;19.05;65.13;100430.80;130334;1268;108905;-75
2022/06/14 07:38:57;;;;;;;2.50;1.10;;;;;;;19.33;63.70;100428.06;130450;1268;108748;-77
2022/06/14 07:42:09;;;;;;;3.50;1.20;;;;;;;19.20;61.81;100426.00;130365;1267;108727;-76
2022/06/14 07:45:21;;;;;;;2.60;1.10;;;;;;;19.07;62.28;100425.81;130374;1268;108746;-77
2022/06/14 07:48:34;;;;;;;1.90;1.10;;;;;;;19.11;62.37;100424.91;130271;1268;108663;-82
2022/06/14 07:51:43;;;;;;;3.00;1.20;;;;;;;19.05;61.31;100427.34;130257;1267;108785;-77
2022/06/14 07:54:53;;;;;;;3.40;1.20;;;;;;;18.97;61.02;100426.70;130295;1267;108750;-75
2022/06/14 07:58:10;;;;;;;3.20;1.20;;;;;;;18.68;61.48;100427.74;130767;1268;107738;-77
2022/06/14 08:01:20;;;;;;;2.50;1.20;;;;;;;18.54;59.71;100424.85;130487;1268;108869;-72
2022/06/14 08:04:33;;;;;;;2.90;1.20;;;;;;;18.44;61.06;100424.81;130211;1267;108848;-74
2022/06/14 08:07:40;;;;;;;2.70;1.30;;;;;;;18.68;60.66;100424.80;130289;1268;108893;-76
2022/06/14 08:10:52;;;;;;;1.60;1.10;;;;;;;18.54;56.64;100429.89;130306;1267;109105;-73
2022/06/14 08:14:01;;;;;;;3.00;1.40;;;;;;;18.27;56.50;100428.01;130709;1267;108677;-73
2022/06/14 08:17:09;;;;;;;2.40;1.20;;;;;;;18.14;58.29;100427.64;131062;1267;108751;-73
2022/06/14 08:20:24;;;;;;;2.30;1.00;;;;;;;18.31;59.11;100424.00;130577;1267;108147;-74
2022/06/14 08:23:35;;;;;;;1.60;1.00;;;;;;;18.51;59.66;100425.98;130468;1268;109227;-74
2022/06/14 08:26:46;;;;;;;2.40;1.00;;;;;;;18.69;60.05;100426.96;130703;1267;108403;-72
2022/06/14 08:29:58;;;;;;;3.30;1.20;;;;;;;18.86;57.78;100434.90;130280;1268;108716;-72
2022/06/14 08:33:11;;;;;;;2.40;1.10;;;;;;;18.49;56.37;100435.27;130256;1268;108815;-71
2022/06/14 08:36:21;;;;;;;1.90;1.00;;;;;;;18.14;56.86;100432.95;130325;1268;108741;-75
2022/06/14 08:39:33;;;;;;;3.20;1.10;;;;;;;18.25;59.19;100438.84;131246;1267;108966;-73
2022/06/14 08:42:44;;;;;;;2.20;0.90;;;;;;;18.56;59.04;100428.36;130280;1267;108785;-77
2022/06/14 08:46:07;;;;;;;1.80;1.00;;;;;;;18.68;59.11;100430.52;131047;1267;108945;-78
2022/06/14 08:49:32;;;;;;;2.20;0.90;;;;;;;18.83;57.72;100429.15;130392;1267;108694;-78
2022/06/14 08:53:09;;;;;;;2.20;1.00;;;;;;;19.14;57.31;100427.49;130489;1267;108670;-77
2022/06/14 08:56:33;;;;;;;2.40;1.10;;;;;;;19.08;56.23;100428.19;130543;1267;108634;-75
2022/06/14 09:00:05;;;;;;;2.50;1.10;;;;;;;19.13;56.87;100429.66;130484;1267;108728;-74
2022/06/14 09:03:42;;;;;;;3.10;1.00;;;;;;;19.01;54.76;100435.91;130313;1267;108541;-74
2022/06/14 09:07:21;;;;;;;1.90;0.80;;;;;;;18.68;56.48;100438.35;130824;1267;108797;-75
2022/06/14 09:10:48;;;;;;;2.50;0.90;;;;;;;18.57;55.87;100435.30;130343;1268;108946;-76
2022/06/14 09:14:23;;;;;;;1.70;0.90;;;;;;;18.29;54.82;100437.57;130313;1270;108720;-77
2022/06/14 09:17:49;;;;;;;1.60;0.90;;;;;;;18.31;54.73;100440.54;130541;1267;108864;-76
2022/06/14 09:21:13;;;;;;;2.70;1.10;;;;;;;18.53;56.05;100428.89;130387;1268;108799;-75
2022/06/14 09:24:44;;;;;;;2.50;1.00;;;;;;;18.62;54.60;100428.10;130298;1268;108718;-75
2022/06/14 09:28:13;;;;;;;2.20;1.00;;;;;;;18.66;55.50;100433.73;130408;1268;108902;-76
2022/06/14 09:31:30;;;;;;;1.80;0.90;;;;;;;18.88;55.77;100439.70;130254;1268;108973;-77
2022/06/14 09:34:52;;;;;;;2.50;1.10;;;;;;;18.72;52.86;100437.04;130511;1268;107693;-77
2022/06/14 09:38:14;;;;;;;2.10;1.10;;;;;;;18.28;53.28;100442.11;130796;1268;108663;-77
2022/06/14 09:41:33;;;;;;;1.20;0.80;;;;;;;18.17;54.55;100443.32;130560;1268;108680;-77
2022/06/14 09:45:37;;;;;;;2.50;1.00;;;;;;;18.48;55.91;100440.00;130378;1268;107091;-75
2022/06/14 09:48:59;;;;;;;3.50;1.10;;;;;;;19.11;54.69;100436.60;129946;1273;108727;-76
2022/06/14 09:52:31;;;;;;;1.80;1.10;;;;;;;19.30;53.22;100434.98;131335;1267;108708;-78
2022/06/14 09:56:12;;;;;;;4.00;1.00;;;;;;;19.31;52.50;100451.48;130279;1268;107772;-74
2022/06/14 09:59:41;;;;;;;1.90;0.80;;;;;;;19.28;52.80;100439.67;129715;1268;108762;-75
2022/06/14 10:03:06;;;;;;;1.40;0.80;;;;;;;19.21;53.21;100437.11;130383;1268;108782;-75
2022/06/14 10:06:39;;;;;;;2.70;1.10;;;;;;;19.13;52.15;100445.71;130255;1268;108769;-75
2022/06/14 10:10:02;;;;;;;2.20;0.80;;;;;;;18.77;50.96;100441.84;130524;1267;108706;-74
2022/06/14 10:13:59;;;;;;;2.90;1.10;;;;;;;18.82;53.71;100434.64;130283;1267;108838;-73
2022/06/14 10:17:41;;;;;;;4.60;1.10;;;;;;;19.23;52.94;100438.33;129814;1273;108589;-74
2022/06/14 10:20:54;;;;;;;5.60;1.30;;;;;;;18.97;51.57;100440.98;130239;1267;108760;-74
2022/06/14 10:24:13;;;;;;;4.40;1.10;;;;;;;18.54;49.77;100451.84;130209;1268;108736;-76
2022/06/14 10:31:07;;;;;;;3.20;1.10;;;;;;;18.11;52.11;100451.37;130294;1268;108752;-75
2022/06/14 10:34:21;;;;;;;3.30;1.40;;;;;;;18.13;51.79;100448.83;130434;1267;109272;-74
2022/06/14 10:37:49;;;;;;;4.10;1.60;;;;;;;18.22;52.65;100443.70;130351;1267;108806;-73
2022/06/14 10:41:00;;;;;;;3.20;1.20;;;;;;;18.53;51.72;100441.02;130340;1267;108766;-72
2022/06/14 10:44:21;;;;;;;2.50;1.70;;;;;;;18.98;52.94;100433.70;130264;1267;108677;-72
2022/06/14 10:47:44;;;;;;;3.30;1.40;;;;;;;19.44;51.73;100432.94;130256;1268;108728;-73
2022/06/14 10:51:10;;;;;;;3.40;1.10;;;;;;;19.46;51.53;100427.20;130209;1268;108980;-73
2022/06/14 10:54:24;;;;;;;5.30;1.10;;;;;;;19.50;51.47;100435.69;130237;1268;108886;-72
2022/06/14 10:57:48;;;;;;;2.60;1.00;;;;;;;19.46;49.81;100441.73;130241;1268;107569;-72
2022/06/14 11:01:03;;;;;;;2.10;0.90;;;;;;;19.39;51.80;100435.48;130316;1268;108660;-73
2022/06/14 11:04:19;;;;;;;6.20;1.00;;;;;;;19.59;49.21;100439.15;130424;1268;108711;-74
2022/06/14 11:07:39;;;;;;;3.30;0.90;;;;;;;19.63;48.84;100436.91;130419;1267;107277;-74
2022/06/14 11:11:03;;;;;;;2.20;1.20;;;;;;;19.43;50.05;100438.44;130321;1268;106979;-74
2022/06/14 11:14:16;;;;;;;2.40;1.00;;;;;;;19.37;49.93;100434.52;130420;1267;107666;-76
2022/06/14 11:17:39;;;;;;;2.40;1.00;;;;;;;19.19;50.49;100441.90;130243;1268;107642;-74
2022/06/14 11:20:54;;;;;;;5.10;1.10;;;;;;;19.33;50.36;100442.05;130312;1268;108732;-73
2022/06/14 11:24:12;;;;;;;2.70;1.10;;;;;;;19.40;49.66;100441.23;130371;1268;108761;-73
2022/06/14 11:27:25;;;;;;;2.90;1.00;;;;;;;19.52;49.40;100435.54;130297;1268;108883;-73
2022/06/14 11:30:41;;;;;;;3.00;1.20;;;;;;;19.52;49.66;100440.56;130320;1267;108819;-71
2022/06/14 11:34:00;;;;;;;2.40;1.20;;;;;;;19.41;49.53;100443.48;130237;1270;108688;-73
2022/06/14 11:37:28;;;;;;;3.50;0.90;;;;;;;19.43;49.49;100442.44;130238;1269;108783;-73
2022/06/14 11:40:39;;;;;;;3.40;1.00;;;;;;;19.39;48.69;100439.77;130195;1270;108641;-74
2022/06/14 11:44:09;;;;;;;4.80;1.30;;;;;;;19.43;48.04;100445.94;130293;1270;108766;-72
2022/06/14 11:47:27;;;;;;;3.20;1.00;;;;;;;19.48;49.03;100440.52;130555;1270;108953;-71
2022/06/14 11:50:40;;;;;;;3.60;1.20;;;;;;;19.59;47.25;100445.98;130309;1270;108691;-71
2022/06/14 11:54:09;;;;;;;3.60;1.00;;;;;;;19.86;48.74;100437.30;130137;1270;108674;-72
2022/06/14 11:57:21;;;;;;;2.60;1.20;;;;;;;19.96;46.54;100449.04;130331;1270;108940;-75
2022/06/14 12:00:44;;;;;;;3.40;1.10;;;;;;;19.44;45.57;100448.92;130281;1270;108947;-74
2022/06/14 12:04:08;;;;;;;2.70;1.20;;;;;;;19.18;46.69;100450.14;130266;1270;108835;-71
2022/06/14 12:07:22;;;;;;;4.90;1.20;;;;;;;19.07;47.28;100454.52;130173;1270;108725;-76
2022/06/14 12:10:52;;;;;;;2.70;1.30;;;;;;;19.32;48.11;100451.33;130238;1270;108745;-73
2022/06/14 12:14:24;;;;;;;3.40;1.00;;;;;;;19.65;46.47;100439.98;130211;1270;108717;-74
2022/06/14 12:17:36;;;;;;;3.20;1.10;;;;;;;19.91;45.90;100451.75;130229;1269;108890;-71
2022/06/14 12:20:48;;;;;;;3.90;1.10;;;;;;;19.71;45.66;100453.41;130253;1270;108626;-72
2022/06/14 12:23:54;;;;;;;;;;;;;;;19.45;44.74;100456.55;130365;1270;108798;-77
2022/06/14 12:27:05;;;;;;;3.30;1.20;;;;;;;19.15;44.26;100462.28;130304;1270;108797;-76
2022/06/14 12:30:12;;;;;;;1.80;1.00;;;;;;;18.96;45.20;100468.46;130357;1270;108772;-73
2022/06/14 12:33:30;;;;;;;2.30;1.20;;;;;;;18.86;46.28;100465.14;130251;1270;109039;-73
2022/06/14 12:36:44;;;;;;;4.20;1.20;;;;;;;18.88;45.76;100466.87;130386;1268;109523;-73
2022/06/14 12:39:55;;;;;;;3.20;1.60;;;;;;;18.96;46.39;100468.14;130414;1267;109055;-73
2022/06/14 12:43:05;;;;;;;3.20;1.20;;;;;;;18.86;44.73;100473.59;130372;1267;108797;-73
2022/06/14 12:46:16;;;;;;;2.50;0.90;;;;;;;18.73;46.03;100470.21;130286;1268;107086;-73
2022/06/14 12:49:26;;;;;;;2.70;1.10;;;;;;;18.60;46.03;100470.05;130316;1268;108693;-76
2022/06/14 12:52:38;;;;;;;2.20;1.00;;;;;;;18.50;47.15;100462.72;130387;1268;108679;-76
2022/06/14 12:55:46;;;;;;;2.70;1.10;;;;;;;18.69;46.01;100459.77;130288;1268;109073;-71
2022/06/14 12:59:07;;;;;;;2.20;1.10;;;;;;;18.71;45.43;100463.98;130376;1268;108858;-74
2022/06/14 13:02:18;;;;;;;3.20;1.30;;;;;;;18.69;44.48;100465.00;130392;1268;108702;-71
2022/06/14 13:05:28;;;;;;;2.30;1.10;;;;;;;18.68;45.44;100461.92;130279;1267;108827;-72
2022/06/14 13:08:43;;;;;;;4.10;1.10;;;;;;;18.89;45.56;100460.98;130277;1268;108690;-71
2022/06/14 13:12:02;;;;;;;3.90;1.20;;;;;;;19.13;45.06;100464.35;130319;1268;108755;-72
2022/06/14 13:15:15;;;;;;;3.90;1.20;;;;;;;19.29;45.89;100455.04;130510;1267;108753;-72
2022/06/14 13:18:31;;;;;;;5.10;1.20;;;;;;;19.36;46.03;100458.34;130379;1268;109537;-72
2022/06/14 13:21:56;;;;;;;3.50;1.10;;;;;;;19.37;44.76;100462.16;130977;1267;108709;-73
2022/06/14 13:25:29;;;;;;;3.70;1.00;;;;;;;19.10;44.52;100466.96;130296;1268;108904;-74
2022/06/14 13:29:07;;;;;;;2.90;1.20;;;;;;;18.72;45.66;100470.59;130383;1268;108673;-74
2022/06/14 13:32:37;;;;;;;4.30;1.20;;;;;;;18.60;45.78;100474.48;130342;1268;108742;-74
2022/06/14 13:35:52;;;;;;;2.20;1.10;;;;;;;18.78;46.39;100473.63;130304;1268;109031;-73
2022/06/14 13:39:02;;;;;;;5.10;1.40;;;;;;;18.99;46.48;100476.41;130368;1267;108553;-75
2022/06/14 13:42:15;;;;;;;5.20;1.40;;;;;;;19.07;45.82;100470.88;130360;1268;108939;-74
2022/06/14 13:45:29;;;;;;;2.60;1.00;;;;;;;18.80;45.87;100475.09;130428;1268;108866;-75
2022/06/14 13:48:42;;;;;;;2.60;1.10;;;;;;;18.76;45.95;100477.89;130305;1267;109676;-75
2022/06/14 13:51:49;;;;;;;;;;;;;;;18.80;46.04;100474.76;130324;1268;108793;-75
2022/06/14 13:55:04;;;;;;;2.80;0.90;;;;;;;19.16;46.15;100471.56;130349;1268;109064;-73
2022/06/14 13:58:17;;;;;;;4.10;1.10;;;;;;;19.47;45.81;100469.96;130284;1267;108623;-71
2022/06/14 14:01:31;;;;;;;3.10;1.40;;;;;;;19.20;43.82;100477.66;130393;1268;107624;-71
2022/06/14 14:04:43;;;;;;;2.70;1.30;;;;;;;18.77;45.41;100486.02;130288;1268;108857;-74
2022/06/14 14:07:59;;;;;;;2.70;1.40;;;;;;;18.49;46.18;100487.86;130550;1268;108854;-71
2022/06/14 14:11:17;;;;;;;2.40;1.10;;;;;;;18.38;46.60;100493.33;130269;1268;108719;-74
2022/06/14 14:15:03;;;;;;;3.40;1.30;;;;;;;18.29;45.42;100493.80;130356;1267;108537;-77
2022/06/14 14:18:21;;;;;;;3.30;1.40;;;;;;;18.38;45.18;100488.88;130456;1268;108692;-77
2022/06/14 14:21:35;;;;;;;3.90;1.30;;;;;;;18.51;45.82;100494.77;130392;1268;108627;-74
2022/06/14 14:24:47;;;;;;;3.60;1.20;;;;;;;18.39;44.64;100496.61;130374;1267;108753;-77
2022/06/14 14:27:54;;;;;;;;;;;;;;;18.28;44.97;100501.16;130508;1268;108720;-77
2022/06/14 14:31:17;;;;;;;3.00;1.40;;;;;;;18.18;45.58;100500.39;130434;1268;107695;-76
2022/06/14 14:34:28;;;;;;;3.40;1.20;;;;;;;18.17;45.44;100501.99;130502;1268;106386;-77
2022/06/14 14:37:40;;;;;;;4.20;1.20;;;;;;;18.17;45.45;100494.31;130417;1268;108723;-77
2022/06/14 14:44:17;;;;;;;1.70;1.10;;;;;;;18.16;45.79;100491.80;130306;1270;108805;-77
2022/06/14 14:47:28;;;;;;;4.10;1.30;;;;;;;18.03;45.86;100494.58;130057;1268;526144;-78
2022/06/14 14:50:41;;;;;;;2.30;1.10;;;;;;;18.00;46.35;100497.34;130313;1268;108961;-76
2022/06/14 14:54:01;;;;;;;4.90;1.30;;;;;;;17.99;46.88;100490.80;130332;1268;108838;-79
2022/06/14 14:57:14;;;;;;;3.50;1.20;;;;;;;18.08;46.86;100492.79;130355;1268;108839;-79
2022/06/14 15:07:30;;;;;;;3.90;1.30;;;;;;;18.26;47.01;100485.69;130490;1268;107809;-80
2022/06/14 15:10:56;;;;;;;3.40;1.30;;;;;;;18.39;47.14;100485.98;130469;1268;108799;-78
2022/06/14 15:14:02;;;;;;;3.80;1.20;;;;;;;18.62;46.49;100489.14;130596;1268;108838;-87
2022/06/14 15:20:51;;;;;;;4.30;1.30;;;;;;;18.59;46.67;100484.55;130912;1267;108789;-83